sensor_id;sensor_type;location;lat;lon;timestamp;P1;durP1;ratioP1;P2;durP2;ratioP2
20397;SDS011;10358;49.590;11.030;2023-03-04T00:01:43;25.27;;;12.33;;
20397;SDS011;10358;49.590;11.030;2023-03-04T00:04:09;21.90;;;11.47;;
20397;SDS011;10358;49.590;11.030;2023-03-04T00:06:34;27.33;;;11.37;;
20397;SDS011;10358;49.590;11.030;2023-03-04T00:09:00;23.53;;;10.63;;
20397;SDS011;10358;49.590;11.030;2023-03-04T00:11:27;23.90;;;12.00;;
20397;SDS011;10358;49.590;11.030;2023-03-04T00:13:53;23.37;;;11.10;;
20397;SDS011;10358;49.590;11.030;2023-03-04T00:16:19;21.93;;;10.80;;
20397;SDS011;10358;49.590;11.030;2023-03-04T00:18:45;24.27;;;10.97;;
20397;SDS011;10358;49.590;11.030;2023-03-04T00:21:10;22.67;;;11.47;;
20397;SDS011;10358;49.590;11.030;2023-03-04T00:23:36;24.60;;;11.90;;
20397;SDS011;10358;49.590;11.030;2023-03-04T00:26:01;24.03;;;10.77;;
20397;SDS011;10358;49.590;11.030;2023-03-04T00:28:27;23.63;;;11.00;;
20397;SDS011;10358;49.590;11.030;2023-03-04T00:30:52;24.17;;;11.20;;
20397;SDS011;10358;49.590;11.030;2023-03-04T00:33:18;22.10;;;11.17;;
20397;SDS011;10358;49.590;11.030;2023-03-04T00:35:43;22.17;;;10.70;;
20397;SDS011;10358;49.590;11.030;2023-03-04T00:38:09;22.03;;;10.90;;
20397;SDS011;10358;49.590;11.030;2023-03-04T00:40:34;22.03;;;10.90;;
20397;SDS011;10358;49.590;11.030;2023-03-04T00:43:01;23.27;;;10.70;;
20397;SDS011;10358;49.590;11.030;2023-03-04T00:45:27;20.23;;;10.93;;
20397;SDS011;10358;49.590;11.030;2023-03-04T00:47:52;23.50;;;11.70;;
20397;SDS011;10358;49.590;11.030;2023-03-04T00:50:18;20.70;;;10.53;;
20397;SDS011;10358;49.590;11.030;2023-03-04T00:52:43;23.53;;;10.70;;
20397;SDS011;10358;49.590;11.030;2023-03-04T00:55:09;21.90;;;10.27;;
20397;SDS011;10358;49.590;11.030;2023-03-04T00:57:35;21.47;;;10.83;;
20397;SDS011;10358;49.590;11.030;2023-03-04T01:00:00;23.37;;;11.67;;
20397;SDS011;10358;49.590;11.030;2023-03-04T01:02:26;22.20;;;11.17;;
20397;SDS011;10358;49.590;11.030;2023-03-04T01:04:51;22.00;;;10.27;;
20397;SDS011;10358;49.590;11.030;2023-03-04T01:07:17;26.87;;;10.90;;
20397;SDS011;10358;49.590;11.030;2023-03-04T01:09:42;24.07;;;10.90;;
20397;SDS011;10358;49.590;11.030;2023-03-04T01:12:08;23.40;;;11.27;;
20397;SDS011;10358;49.590;11.030;2023-03-04T01:14:34;22.60;;;10.87;;
20397;SDS011;10358;49.590;11.030;2023-03-04T01:16:59;22.30;;;10.60;;
20397;SDS011;10358;49.590;11.030;2023-03-04T01:19:25;24.27;;;11.43;;
20397;SDS011;10358;49.590;11.030;2023-03-04T01:21:50;25.13;;;11.17;;
20397;SDS011;10358;49.590;11.030;2023-03-04T01:24:16;23.70;;;11.17;;
20397;SDS011;10358;49.590;11.030;2023-03-04T01:26:42;24.20;;;12.00;;
20397;SDS011;10358;49.590;11.030;2023-03-04T01:29:07;22.27;;;10.97;;
20397;SDS011;10358;49.590;11.030;2023-03-04T01:31:33;25.23;;;12.27;;
20397;SDS011;10358;49.590;11.030;2023-03-04T01:33:59;23.00;;;11.20;;
20397;SDS011;10358;49.590;11.030;2023-03-04T01:36:24;23.17;;;11.27;;
20397;SDS011;10358;49.590;11.030;2023-03-04T01:38:50;25.37;;;12.00;;
20397;SDS011;10358;49.590;11.030;2023-03-04T01:41:16;21.33;;;10.70;;
20397;SDS011;10358;49.590;11.030;2023-03-04T01:43:43;20.20;;;10.03;;
20397;SDS011;10358;49.590;11.030;2023-03-04T01:46:09;20.93;;;10.27;;
20397;SDS011;10358;49.590;11.030;2023-03-04T01:48:38;23.30;;;11.03;;
20397;SDS011;10358;49.590;11.030;2023-03-04T01:51:05;21.70;;;11.10;;
20397;SDS011;10358;49.590;11.030;2023-03-04T01:53:36;20.73;;;10.40;;
20397;SDS011;10358;49.590;11.030;2023-03-04T01:56:12;19.43;;;10.00;;
20397;SDS011;10358;49.590;11.030;2023-03-04T02:01:45;21.43;;;10.27;;
20397;SDS011;10358;49.590;11.030;2023-03-04T02:04:12;18.67;;;10.00;;
20397;SDS011;10358;49.590;11.030;2023-03-04T02:06:40;21.13;;;10.03;;
20397;SDS011;10358;49.590;11.030;2023-03-04T02:09:07;23.57;;;10.40;;
20397;SDS011;10358;49.590;11.030;2023-03-04T02:11:33;19.30;;;9.60;;
20397;SDS011;10358;49.590;11.030;2023-03-04T02:14:00;25.67;;;11.07;;
20397;SDS011;10358;49.590;11.030;2023-03-04T02:16:26;19.03;;;9.70;;
20397;SDS011;10358;49.590;11.030;2023-03-04T02:18:52;21.23;;;10.60;;
20397;SDS011;10358;49.590;11.030;2023-03-04T02:26:41;22.10;;;11.17;;
20397;SDS011;10358;49.590;11.030;2023-03-04T02:29:08;23.13;;;10.97;;
20397;SDS011;10358;49.590;11.030;2023-03-04T02:31:36;24.27;;;11.07;;
20397;SDS011;10358;49.590;11.030;2023-03-04T02:34:10;23.73;;;10.90;;
20397;SDS011;10358;49.590;11.030;2023-03-04T02:36:41;21.67;;;11.03;;
20397;SDS011;10358;49.590;11.030;2023-03-04T02:39:12;22.33;;;10.43;;
20397;SDS011;10358;49.590;11.030;2023-03-04T02:41:43;23.00;;;10.17;;
20397;SDS011;10358;49.590;11.030;2023-03-04T02:44:20;19.07;;;9.90;;
20397;SDS011;10358;49.590;11.030;2023-03-04T02:46:51;21.13;;;10.80;;
20397;SDS011;10358;49.590;11.030;2023-03-04T02:49:17;25.17;;;12.57;;
20397;SDS011;10358;49.590;11.030;2023-03-04T02:51:43;23.50;;;11.10;;
20397;SDS011;10358;49.590;11.030;2023-03-04T02:54:16;25.67;;;12.77;;
20397;SDS011;10358;49.590;11.030;2023-03-04T02:56:53;23.43;;;11.63;;
20397;SDS011;10358;49.590;11.030;2023-03-04T02:59:20;24.67;;;11.70;;
20397;SDS011;10358;49.590;11.030;2023-03-04T03:01:46;29.10;;;13.53;;
20397;SDS011;10358;49.590;11.030;2023-03-04T03:04:12;25.30;;;11.43;;
20397;SDS011;10358;49.590;11.030;2023-03-04T03:06:39;25.87;;;13.10;;
20397;SDS011;10358;49.590;11.030;2023-03-04T03:09:05;27.03;;;13.27;;
20397;SDS011;10358;49.590;11.030;2023-03-04T03:11:31;28.27;;;13.77;;
20397;SDS011;10358;49.590;11.030;2023-03-04T03:13:57;30.60;;;14.77;;
20397;SDS011;10358;49.590;11.030;2023-03-04T03:16:22;26.73;;;12.70;;
20397;SDS011;10358;49.590;11.030;2023-03-04T03:18:48;29.07;;;12.43;;
20397;SDS011;10358;49.590;11.030;2023-03-04T03:21:14;27.27;;;12.73;;
20397;SDS011;10358;49.590;11.030;2023-03-04T03:23:40;28.77;;;12.93;;
20397;SDS011;10358;49.590;11.030;2023-03-04T03:26:05;27.57;;;13.10;;
20397;SDS011;10358;49.590;11.030;2023-03-04T03:28:31;27.97;;;13.30;;
20397;SDS011;10358;49.590;11.030;2023-03-04T03:30:57;25.17;;;11.93;;
20397;SDS011;10358;49.590;11.030;2023-03-04T03:33:22;24.60;;;11.60;;
20397;SDS011;10358;49.590;11.030;2023-03-04T03:35:48;26.10;;;11.97;;
20397;SDS011;10358;49.590;11.030;2023-03-04T03:38:14;27.83;;;13.00;;
20397;SDS011;10358;49.590;11.030;2023-03-04T03:40:39;32.17;;;12.83;;
20397;SDS011;10358;49.590;11.030;2023-03-04T03:43:05;25.93;;;13.03;;
20397;SDS011;10358;49.590;11.030;2023-03-04T03:45:30;25.97;;;12.27;;
20397;SDS011;10358;49.590;11.030;2023-03-04T03:47:56;23.77;;;11.90;;
20397;SDS011;10358;49.590;11.030;2023-03-04T03:50:22;25.23;;;11.20;;
20397;SDS011;10358;49.590;11.030;2023-03-04T03:52:47;25.70;;;11.63;;
20397;SDS011;10358;49.590;11.030;2023-03-04T03:55:13;24.40;;;12.03;;
20397;SDS011;10358;49.590;11.030;2023-03-04T03:57:39;26.50;;;11.83;;
20397;SDS011;10358;49.590;11.030;2023-03-04T04:00:05;25.87;;;11.63;;
20397;SDS011;10358;49.590;11.030;2023-03-04T04:02:32;25.30;;;11.87;;
20397;SDS011;10358;49.590;11.030;2023-03-04T04:04:57;27.10;;;12.63;;
20397;SDS011;10358;49.590;11.030;2023-03-04T04:07:23;25.87;;;11.53;;
20397;SDS011;10358;49.590;11.030;2023-03-04T04:09:48;28.60;;;12.50;;
20397;SDS011;10358;49.590;11.030;2023-03-04T04:12:14;27.03;;;12.13;;
20397;SDS011;10358;49.590;11.030;2023-03-04T04:14:41;31.47;;;13.40;;
20397;SDS011;10358;49.590;11.030;2023-03-04T04:17:06;26.43;;;12.63;;
20397;SDS011;10358;49.590;11.030;2023-03-04T04:19:32;27.57;;;12.13;;
20397;SDS011;10358;49.590;11.030;2023-03-04T04:21:58;25.00;;;12.13;;
20397;SDS011;10358;49.590;11.030;2023-03-04T04:24:23;25.30;;;11.47;;
20397;SDS011;10358;49.590;11.030;2023-03-04T04:26:49;24.53;;;10.23;;
20397;SDS011;10358;49.590;11.030;2023-03-04T04:29:14;27.73;;;12.47;;
20397;SDS011;10358;49.590;11.030;2023-03-04T04:31:40;27.77;;;11.23;;
20397;SDS011;10358;49.590;11.030;2023-03-04T04:34:06;25.87;;;11.53;;
20397;SDS011;10358;49.590;11.030;2023-03-04T04:36:32;29.57;;;12.70;;
20397;SDS011;10358;49.590;11.030;2023-03-04T04:38:57;27.30;;;11.93;;
20397;SDS011;10358;49.590;11.030;2023-03-04T04:41:25;26.90;;;11.67;;
20397;SDS011;10358;49.590;11.030;2023-03-04T04:43:53;26.70;;;12.13;;
20397;SDS011;10358;49.590;11.030;2023-03-04T04:46:19;27.77;;;12.80;;
20397;SDS011;10358;49.590;11.030;2023-03-04T04:48:45;26.73;;;11.13;;
20397;SDS011;10358;49.590;11.030;2023-03-04T04:51:11;25.73;;;12.03;;
20397;SDS011;10358;49.590;11.030;2023-03-04T04:53:36;24.73;;;11.53;;
20397;SDS011;10358;49.590;11.030;2023-03-04T04:56:09;24.33;;;12.43;;
20397;SDS011;10358;49.590;11.030;2023-03-04T04:58:46;28.67;;;12.13;;
20397;SDS011;10358;49.590;11.030;2023-03-04T05:01:12;29.60;;;13.50;;
20397;SDS011;10358;49.590;11.030;2023-03-04T05:03:38;28.27;;;12.67;;
20397;SDS011;10358;49.590;11.030;2023-03-04T05:06:04;30.17;;;13.27;;
20397;SDS011;10358;49.590;11.030;2023-03-04T05:08:31;28.93;;;12.53;;
20397;SDS011;10358;49.590;11.030;2023-03-04T05:10:57;31.33;;;12.47;;
20397;SDS011;10358;49.590;11.030;2023-03-04T05:13:23;30.67;;;13.23;;
20397;SDS011;10358;49.590;11.030;2023-03-04T05:15:52;32.03;;;13.50;;
20397;SDS011;10358;49.590;11.030;2023-03-04T05:18:20;27.53;;;12.77;;
20397;SDS011;10358;49.590;11.030;2023-03-04T05:20:51;32.63;;;13.93;;
20397;SDS011;10358;49.590;11.030;2023-03-04T05:23:17;32.83;;;14.00;;
20397;SDS011;10358;49.590;11.030;2023-03-04T05:25:43;31.73;;;13.30;;
20397;SDS011;10358;49.590;11.030;2023-03-04T05:28:08;32.83;;;13.87;;
20397;SDS011;10358;49.590;11.030;2023-03-04T05:30:36;34.77;;;14.43;;
20397;SDS011;10358;49.590;11.030;2023-03-04T05:33:02;30.90;;;14.43;;
20397;SDS011;10358;49.590;11.030;2023-03-04T05:35:28;34.23;;;14.37;;
20397;SDS011;10358;49.590;11.030;2023-03-04T05:37:53;32.07;;;13.93;;
20397;SDS011;10358;49.590;11.030;2023-03-04T05:40:19;30.93;;;14.13;;
20397;SDS011;10358;49.590;11.030;2023-03-04T05:42:44;29.13;;;13.33;;
20397;SDS011;10358;49.590;11.030;2023-03-04T05:45:10;31.00;;;13.13;;
20397;SDS011;10358;49.590;11.030;2023-03-04T05:47:36;31.30;;;12.37;;
20397;SDS011;10358;49.590;11.030;2023-03-04T05:50:01;32.93;;;12.83;;
20397;SDS011;10358;49.590;11.030;2023-03-04T05:52:27;31.07;;;13.03;;
20397;SDS011;10358;49.590;11.030;2023-03-04T05:54:52;31.13;;;12.77;;
20397;SDS011;10358;49.590;11.030;2023-03-04T05:57:18;28.87;;;12.70;;
20397;SDS011;10358;49.590;11.030;2023-03-04T05:59:43;26.13;;;12.60;;
20397;SDS011;10358;49.590;11.030;2023-03-04T06:02:09;28.80;;;12.10;;
20397;SDS011;10358;49.590;11.030;2023-03-04T06:04:34;27.60;;;12.73;;
20397;SDS011;10358;49.590;11.030;2023-03-04T06:07:00;28.73;;;13.20;;
20397;SDS011;10358;49.590;11.030;2023-03-04T06:09:25;29.60;;;13.80;;
20397;SDS011;10358;49.590;11.030;2023-03-04T06:11:51;30.23;;;13.13;;
20397;SDS011;10358;49.590;11.030;2023-03-04T06:14:16;29.07;;;12.53;;
20397;SDS011;10358;49.590;11.030;2023-03-04T06:16:42;28.17;;;12.47;;
20397;SDS011;10358;49.590;11.030;2023-03-04T06:19:07;26.40;;;13.10;;
20397;SDS011;10358;49.590;11.030;2023-03-04T06:21:33;32.17;;;12.73;;
20397;SDS011;10358;49.590;11.030;2023-03-04T06:23:58;33.13;;;13.20;;
20397;SDS011;10358;49.590;11.030;2023-03-04T06:26:24;28.27;;;12.30;;
20397;SDS011;10358;49.590;11.030;2023-03-04T06:28:49;32.57;;;14.00;;
20397;SDS011;10358;49.590;11.030;2023-03-04T06:31:15;32.10;;;13.53;;
20397;SDS011;10358;49.590;11.030;2023-03-04T06:33:41;31.33;;;13.80;;
20397;SDS011;10358;49.590;11.030;2023-03-04T06:36:06;31.37;;;13.43;;
20397;SDS011;10358;49.590;11.030;2023-03-04T06:38:32;32.27;;;13.27;;
20397;SDS011;10358;49.590;11.030;2023-03-04T06:41:04;29.50;;;13.27;;
20397;SDS011;10358;49.590;11.030;2023-03-04T06:43:34;27.53;;;12.40;;
20397;SDS011;10358;49.590;11.030;2023-03-04T06:46:00;28.33;;;13.33;;
20397;SDS011;10358;49.590;11.030;2023-03-04T06:48:25;24.90;;;12.00;;
20397;SDS011;10358;49.590;11.030;2023-03-04T06:50:52;28.57;;;13.10;;
20397;SDS011;10358;49.590;11.030;2023-03-04T06:53:17;32.17;;;13.77;;
20397;SDS011;10358;49.590;11.030;2023-03-04T06:55:43;28.37;;;13.40;;
20397;SDS011;10358;49.590;11.030;2023-03-04T06:58:09;31.93;;;13.23;;
20397;SDS011;10358;49.590;11.030;2023-03-04T07:00:34;31.33;;;13.07;;
20397;SDS011;10358;49.590;11.030;2023-03-04T07:03:00;30.73;;;13.37;;
20397;SDS011;10358;49.590;11.030;2023-03-04T07:05:25;30.43;;;13.20;;
20397;SDS011;10358;49.590;11.030;2023-03-04T07:07:51;30.00;;;13.93;;
20397;SDS011;10358;49.590;11.030;2023-03-04T07:10:17;29.63;;;13.27;;
20397;SDS011;10358;49.590;11.030;2023-03-04T07:12:43;30.13;;;13.07;;
20397;SDS011;10358;49.590;11.030;2023-03-04T07:15:09;27.90;;;12.60;;
20397;SDS011;10358;49.590;11.030;2023-03-04T07:17:34;30.03;;;13.33;;
20397;SDS011;10358;49.590;11.030;2023-03-04T07:20:00;29.70;;;13.77;;
20397;SDS011;10358;49.590;11.030;2023-03-04T07:22:26;29.60;;;12.97;;
20397;SDS011;10358;49.590;11.030;2023-03-04T07:24:51;33.97;;;14.67;;
20397;SDS011;10358;49.590;11.030;2023-03-04T07:27:17;28.03;;;13.23;;
20397;SDS011;10358;49.590;11.030;2023-03-04T07:29:42;30.17;;;13.17;;
20397;SDS011;10358;49.590;11.030;2023-03-04T07:32:08;28.33;;;13.03;;
20397;SDS011;10358;49.590;11.030;2023-03-04T07:34:36;28.23;;;12.73;;
20397;SDS011;10358;49.590;11.030;2023-03-04T07:37:01;28.97;;;13.33;;
20397;SDS011;10358;49.590;11.030;2023-03-04T07:39:27;28.00;;;12.87;;
20397;SDS011;10358;49.590;11.030;2023-03-04T07:41:52;26.77;;;11.97;;
20397;SDS011;10358;49.590;11.030;2023-03-04T07:44:18;33.87;;;13.13;;
20397;SDS011;10358;49.590;11.030;2023-03-04T07:46:44;31.63;;;13.43;;
20397;SDS011;10358;49.590;11.030;2023-03-04T07:49:12;27.27;;;12.67;;
20397;SDS011;10358;49.590;11.030;2023-03-04T07:51:38;27.17;;;13.10;;
20397;SDS011;10358;49.590;11.030;2023-03-04T07:54:03;26.93;;;12.83;;
20397;SDS011;10358;49.590;11.030;2023-03-04T07:56:30;28.60;;;13.73;;
20397;SDS011;10358;49.590;11.030;2023-03-04T07:58:57;25.17;;;13.03;;
20397;SDS011;10358;49.590;11.030;2023-03-04T08:01:25;27.60;;;12.60;;
20397;SDS011;10358;49.590;11.030;2023-03-04T08:03:53;25.97;;;12.70;;
20397;SDS011;10358;49.590;11.030;2023-03-04T08:06:19;28.23;;;12.97;;
20397;SDS011;10358;49.590;11.030;2023-03-04T08:08:46;28.30;;;13.47;;
20397;SDS011;10358;49.590;11.030;2023-03-04T08:11:13;26.87;;;13.00;;
20397;SDS011;10358;49.590;11.030;2023-03-04T08:13:40;28.90;;;13.50;;
20397;SDS011;10358;49.590;11.030;2023-03-04T08:16:06;25.33;;;12.53;;
20397;SDS011;10358;49.590;11.030;2023-03-04T08:18:32;30.93;;;13.73;;
20397;SDS011;10358;49.590;11.030;2023-03-04T08:20:58;30.67;;;13.33;;
20397;SDS011;10358;49.590;11.030;2023-03-04T08:23:24;29.40;;;13.50;;
20397;SDS011;10358;49.590;11.030;2023-03-04T08:25:50;30.07;;;14.50;;
20397;SDS011;10358;49.590;11.030;2023-03-04T08:28:15;28.43;;;13.63;;
20397;SDS011;10358;49.590;11.030;2023-03-04T08:30:42;26.93;;;13.00;;
20397;SDS011;10358;49.590;11.030;2023-03-04T08:33:08;24.90;;;13.03;;
20397;SDS011;10358;49.590;11.030;2023-03-04T08:35:38;31.33;;;13.67;;
20397;SDS011;10358;49.590;11.030;2023-03-04T08:38:05;27.03;;;13.10;;
20397;SDS011;10358;49.590;11.030;2023-03-04T08:40:31;29.33;;;13.57;;
20397;SDS011;10358;49.590;11.030;2023-03-04T08:42:57;27.63;;;13.53;;
20397;SDS011;10358;49.590;11.030;2023-03-04T08:45:22;30.37;;;13.20;;
20397;SDS011;10358;49.590;11.030;2023-03-04T08:47:48;26.17;;;12.80;;
20397;SDS011;10358;49.590;11.030;2023-03-04T08:50:15;26.10;;;12.33;;
20397;SDS011;10358;49.590;11.030;2023-03-04T08:52:40;29.23;;;13.20;;
20397;SDS011;10358;49.590;11.030;2023-03-04T08:55:06;28.03;;;13.33;;
20397;SDS011;10358;49.590;11.030;2023-03-04T08:57:32;23.57;;;12.00;;
20397;SDS011;10358;49.590;11.030;2023-03-04T08:59:57;27.00;;;12.80;;
20397;SDS011;10358;49.590;11.030;2023-03-04T09:02:23;24.60;;;12.50;;
20397;SDS011;10358;49.590;11.030;2023-03-04T09:04:49;27.17;;;12.73;;
20397;SDS011;10358;49.590;11.030;2023-03-04T09:07:14;28.00;;;12.33;;
20397;SDS011;10358;49.590;11.030;2023-03-04T09:09:40;26.57;;;12.60;;
20397;SDS011;10358;49.590;11.030;2023-03-04T09:12:05;28.13;;;12.47;;
20397;SDS011;10358;49.590;11.030;2023-03-04T09:14:31;27.17;;;12.87;;
20397;SDS011;10358;49.590;11.030;2023-03-04T09:16:59;25.07;;;13.00;;
20397;SDS011;10358;49.590;11.030;2023-03-04T09:19:26;30.27;;;12.97;;
20397;SDS011;10358;49.590;11.030;2023-03-04T09:21:52;30.20;;;12.73;;
20397;SDS011;10358;49.590;11.030;2023-03-04T09:24:19;27.17;;;13.53;;
20397;SDS011;10358;49.590;11.030;2023-03-04T09:26:44;25.90;;;13.03;;
20397;SDS011;10358;49.590;11.030;2023-03-04T09:29:15;28.00;;;14.43;;
20397;SDS011;10358;49.590;11.030;2023-03-04T09:31:40;24.07;;;12.70;;
20397;SDS011;10358;49.590;11.030;2023-03-04T09:34:06;26.67;;;12.63;;
20397;SDS011;10358;49.590;11.030;2023-03-04T09:36:31;25.10;;;12.77;;
20397;SDS011;10358;49.590;11.030;2023-03-04T09:39:00;25.87;;;13.20;;
20397;SDS011;10358;49.590;11.030;2023-03-04T09:41:45;30.30;;;13.80;;
20397;SDS011;10358;49.590;11.030;2023-03-04T09:46:47;26.73;;;13.43;;
20397;SDS011;10358;49.590;11.030;2023-03-04T09:49:14;24.63;;;13.50;;
20397;SDS011;10358;49.590;11.030;2023-03-04T09:51:48;24.57;;;12.77;;
20397;SDS011;10358;49.590;11.030;2023-03-04T10:00:09;28.87;;;17.87;;
20397;SDS011;10358;49.590;11.030;2023-03-04T10:05:41;22.87;;;12.57;;
20397;SDS011;10358;49.590;11.030;2023-03-04T10:11:02;32.00;;;14.90;;
20397;SDS011;10358;49.590;11.030;2023-03-04T10:16:48;24.17;;;12.93;;
20397;SDS011;10358;49.590;11.030;2023-03-04T10:19:20;26.13;;;13.43;;
20397;SDS011;10358;49.590;11.030;2023-03-04T10:21:58;38.20;;;18.47;;
20397;SDS011;10358;49.590;11.030;2023-03-04T10:24:26;25.57;;;13.53;;
20397;SDS011;10358;49.590;11.030;2023-03-04T10:26:55;26.17;;;12.80;;
20397;SDS011;10358;49.590;11.030;2023-03-04T10:29:25;29.17;;;14.17;;
20397;SDS011;10358;49.590;11.030;2023-03-04T10:31:54;27.87;;;12.90;;
20397;SDS011;10358;49.590;11.030;2023-03-04T10:34:20;28.27;;;13.67;;
20397;SDS011;10358;49.590;11.030;2023-03-04T10:36:49;21.53;;;11.90;;
20397;SDS011;10358;49.590;11.030;2023-03-04T10:39:21;30.60;;;14.27;;
20397;SDS011;10358;49.590;11.030;2023-03-04T10:41:56;24.73;;;13.43;;
20397;SDS011;10358;49.590;11.030;2023-03-04T10:44:24;21.20;;;12.13;;
20397;SDS011;10358;49.590;11.030;2023-03-04T10:46:50;22.53;;;11.90;;
20397;SDS011;10358;49.590;11.030;2023-03-04T10:49:19;25.63;;;12.87;;
20397;SDS011;10358;49.590;11.030;2023-03-04T10:51:46;27.50;;;13.97;;
20397;SDS011;10358;49.590;11.030;2023-03-04T10:54:25;24.67;;;13.50;;
20397;SDS011;10358;49.590;11.030;2023-03-04T10:57:05;25.17;;;12.63;;
20397;SDS011;10358;49.590;11.030;2023-03-04T11:07:19;23.90;;;12.87;;
20397;SDS011;10358;49.590;11.030;2023-03-04T11:09:49;25.47;;;12.17;;
20397;SDS011;10358;49.590;11.030;2023-03-04T11:12:15;24.03;;;12.73;;
20397;SDS011;10358;49.590;11.030;2023-03-04T11:14:46;25.27;;;11.73;;
20397;SDS011;10358;49.590;11.030;2023-03-04T11:19:51;23.30;;;11.73;;
20397;SDS011;10358;49.590;11.030;2023-03-04T11:22:45;24.23;;;13.20;;
20397;SDS011;10358;49.590;11.030;2023-03-04T11:25:17;28.00;;;12.73;;
20397;SDS011;10358;49.590;11.030;2023-03-04T11:27:51;23.43;;;11.87;;
20397;SDS011;10358;49.590;11.030;2023-03-04T11:32:59;23.00;;;12.37;;
20397;SDS011;10358;49.590;11.030;2023-03-04T11:35:42;21.73;;;12.13;;
20397;SDS011;10358;49.590;11.030;2023-03-04T11:38:20;21.47;;;11.03;;
20397;SDS011;10358;49.590;11.030;2023-03-04T11:40:50;21.47;;;11.80;;
20397;SDS011;10358;49.590;11.030;2023-03-04T11:43:33;19.10;;;10.97;;
20397;SDS011;10358;49.590;11.030;2023-03-04T11:51:38;19.80;;;10.07;;
20397;SDS011;10358;49.590;11.030;2023-03-04T12:06:40;24.53;;;11.40;;
20397;SDS011;10358;49.590;11.030;2023-03-04T12:11:45;24.23;;;12.03;;
20397;SDS011;10358;49.590;11.030;2023-03-04T12:20:14;22.07;;;12.03;;
20397;SDS011;10358;49.590;11.030;2023-03-04T12:23:10;22.40;;;11.67;;
20397;SDS011;10358;49.590;11.030;2023-03-04T12:31:43;25.57;;;10.60;;
20397;SDS011;10358;49.590;11.030;2023-03-04T12:40:02;22.80;;;10.83;;
20397;SDS011;10358;49.590;11.030;2023-03-04T12:42:39;21.63;;;10.80;;
20397;SDS011;10358;49.590;11.030;2023-03-04T12:57:06;21.20;;;9.83;;
20397;SDS011;10358;49.590;11.030;2023-03-04T12:59:48;27.80;;;10.67;;
20397;SDS011;10358;49.590;11.030;2023-03-04T13:02:26;21.07;;;10.63;;
20397;SDS011;10358;49.590;11.030;2023-03-04T13:05:14;22.37;;;10.27;;
20397;SDS011;10358;49.590;11.030;2023-03-04T13:07:53;21.13;;;10.13;;
20397;SDS011;10358;49.590;11.030;2023-03-04T13:10:40;25.07;;;9.67;;
20397;SDS011;10358;49.590;11.030;2023-03-04T13:13:31;20.30;;;9.20;;
20397;SDS011;10358;49.590;11.030;2023-03-04T13:16:03;22.20;;;8.13;;
20397;SDS011;10358;49.590;11.030;2023-03-04T13:18:31;21.10;;;8.70;;
20397;SDS011;10358;49.590;11.030;2023-03-04T13:21:06;21.87;;;9.30;;
20397;SDS011;10358;49.590;11.030;2023-03-04T13:23:48;18.00;;;8.50;;
20397;SDS011;10358;49.590;11.030;2023-03-04T13:28:54;24.30;;;9.10;;
20397;SDS011;10358;49.590;11.030;2023-03-04T13:31:33;19.23;;;9.13;;
20397;SDS011;10358;49.590;11.030;2023-03-04T13:43:16;18.70;;;10.07;;
20397;SDS011;10358;49.590;11.030;2023-03-04T13:45:48;24.37;;;9.93;;
20397;SDS011;10358;49.590;11.030;2023-03-04T13:48:28;20.10;;;10.80;;
20397;SDS011;10358;49.590;11.030;2023-03-04T13:50:57;29.13;;;11.57;;
20397;SDS011;10358;49.590;11.030;2023-03-04T13:56:09;29.00;;;11.13;;
20397;SDS011;10358;49.590;11.030;2023-03-04T13:58:35;23.93;;;10.50;;
20397;SDS011;10358;49.590;11.030;2023-03-04T14:01:03;21.93;;;10.20;;
20397;SDS011;10358;49.590;11.030;2023-03-04T14:03:29;24.80;;;10.43;;
20397;SDS011;10358;49.590;11.030;2023-03-04T14:06:14;22.50;;;9.50;;
20397;SDS011;10358;49.590;11.030;2023-03-04T14:08:42;24.90;;;10.60;;
20397;SDS011;10358;49.590;11.030;2023-03-04T14:11:13;19.73;;;9.80;;
20397;SDS011;10358;49.590;11.030;2023-03-04T14:13:40;27.57;;;10.53;;
20397;SDS011;10358;49.590;11.030;2023-03-04T14:16:06;24.90;;;10.90;;
20397;SDS011;10358;49.590;11.030;2023-03-04T14:18:32;18.93;;;9.83;;
20397;SDS011;10358;49.590;11.030;2023-03-04T14:20:58;26.83;;;11.03;;
20397;SDS011;10358;49.590;11.030;2023-03-04T14:23:26;26.67;;;10.33;;
20397;SDS011;10358;49.590;11.030;2023-03-04T14:26:17;23.30;;;11.30;;
20397;SDS011;10358;49.590;11.030;2023-03-04T14:28:46;26.37;;;10.90;;
20397;SDS011;10358;49.590;11.030;2023-03-04T14:31:14;25.63;;;10.60;;
20397;SDS011;10358;49.590;11.030;2023-03-04T14:33:46;23.30;;;10.50;;
20397;SDS011;10358;49.590;11.030;2023-03-04T14:36:21;22.47;;;11.67;;
20397;SDS011;10358;49.590;11.030;2023-03-04T14:38:49;23.83;;;11.30;;
20397;SDS011;10358;49.590;11.030;2023-03-04T14:41:36;28.83;;;11.10;;
20397;SDS011;10358;49.590;11.030;2023-03-04T14:46:49;23.87;;;11.73;;
20397;SDS011;10358;49.590;11.030;2023-03-04T14:49:20;21.07;;;10.87;;
20397;SDS011;10358;49.590;11.030;2023-03-04T14:51:50;21.83;;;10.53;;
20397;SDS011;10358;49.590;11.030;2023-03-04T15:02:40;26.17;;;11.03;;
20397;SDS011;10358;49.590;11.030;2023-03-04T15:05:10;24.10;;;11.30;;
20397;SDS011;10358;49.590;11.030;2023-03-04T15:08:15;20.47;;;10.40;;
20397;SDS011;10358;49.590;11.030;2023-03-04T15:10:59;20.27;;;11.13;;
20397;SDS011;10358;49.590;11.030;2023-03-04T15:13:36;20.73;;;10.07;;
20397;SDS011;10358;49.590;11.030;2023-03-04T15:16:08;32.67;;;11.53;;
20397;SDS011;10358;49.590;11.030;2023-03-04T15:18:35;28.43;;;10.97;;
20397;SDS011;10358;49.590;11.030;2023-03-04T15:21:05;23.10;;;10.87;;
20397;SDS011;10358;49.590;11.030;2023-03-04T15:23:50;26.07;;;10.73;;
20397;SDS011;10358;49.590;11.030;2023-03-04T15:26:16;28.03;;;11.20;;
20397;SDS011;10358;49.590;11.030;2023-03-04T15:28:41;23.73;;;10.63;;
20397;SDS011;10358;49.590;11.030;2023-03-04T15:31:41;22.17;;;11.37;;
20397;SDS011;10358;49.590;11.030;2023-03-04T15:33:59;26.40;;;10.20;;
20397;SDS011;10358;49.590;11.030;2023-03-04T15:36:24;32.50;;;12.10;;
20397;SDS011;10358;49.590;11.030;2023-03-04T15:38:51;24.43;;;11.20;;
20397;SDS011;10358;49.590;11.030;2023-03-04T15:41:21;25.30;;;9.80;;
20397;SDS011;10358;49.590;11.030;2023-03-04T15:43:49;27.23;;;11.00;;
20397;SDS011;10358;49.590;11.030;2023-03-04T15:46:15;19.73;;;10.17;;
20397;SDS011;10358;49.590;11.030;2023-03-04T15:48:41;23.00;;;10.13;;
20397;SDS011;10358;49.590;11.030;2023-03-04T15:51:25;27.60;;;10.27;;
20397;SDS011;10358;49.590;11.030;2023-03-04T15:53:52;23.53;;;9.93;;
20397;SDS011;10358;49.590;11.030;2023-03-04T15:56:23;24.07;;;10.57;;
20397;SDS011;10358;49.590;11.030;2023-03-04T15:59:03;22.83;;;10.70;;
20397;SDS011;10358;49.590;11.030;2023-03-04T16:01:36;33.03;;;10.60;;
20397;SDS011;10358;49.590;11.030;2023-03-04T16:04:02;22.53;;;10.60;;
20397;SDS011;10358;49.590;11.030;2023-03-04T16:06:29;28.83;;;11.30;;
20397;SDS011;10358;49.590;11.030;2023-03-04T16:08:55;27.17;;;12.00;;
20397;SDS011;10358;49.590;11.030;2023-03-04T16:11:23;24.77;;;10.27;;